Time;durP1;ratioP1;P1;durP2;ratioP2;P2;SDS_P1;SDS_P2;PMS_P1;PMS_P2;Temp;Humidity;BMP_temperature;BMP_pressure;BME280_temperature;BME280_humidity;BME280_pressure;Samples;Min_cycle;Max_cycle;Signal;HPM_P1;HPM_P2
2022/01/28 00:01:04;;;;;;;25.25;16.67;;;;;;;0.65;100.00;98796.98;1727539;81;21088;-61
2022/01/28 00:03:32;;;;;;;24.43;16.70;;;;;;;0.60;100.00;98802.75;1727464;82;21688;-62
2022/01/28 00:05:58;;;;;;;25.05;16.62;;;;;;;0.60;100.00;98796.05;1735075;82;21071;-61
2022/01/28 00:08:25;;;;;;;23.27;15.55;;;;;;;0.64;100.00;98796.67;1732148;82;21003;-62
2022/01/28 00:10:52;;;;;;;;;;;;;;;0.68;100.00;98795.69;1736135;82;21020;-62
2022/01/28 00:13:26;;;;;;;24.50;16.27;;;;;;;0.69;100.00;98790.12;1727042;82;20134;-62
2022/01/28 00:18:40;;;;;;;24.15;16.15;;;;;;;0.59;100.00;98783.70;1729020;82;21046;-62
2022/01/28 00:37:48;;;;;;;27.82;16.48;;;;;;;0.60;100.00;98763.91;1720239;82;21557;-61
2022/01/28 00:39:53;;;;;;;29.00;17.30;;;;;;;0.63;100.00;98752.73;1722871;82;21074;-60
2022/01/28 00:42:20;;;;;;;23.90;15.50;;;;;;;0.57;100.00;98762.48;1742070;81;21003;-60
2022/01/28 00:44:46;;;;;;;23.40;15.15;;;;;;;0.56;100.00;98754.19;1728478;82;21035;-60
2022/01/28 00:47:13;;;;;;;24.18;16.45;;;;;;;0.58;100.00;98748.58;1699525;81;21444;-60
2022/01/28 00:49:39;;;;;;;23.57;15.53;;;;;;;0.61;100.00;98742.76;1720968;82;21090;-60
2022/01/28 00:52:08;;;;;;;24.32;16.93;;;;;;;0.59;100.00;98745.69;1735529;81;21130;-60
2022/01/28 00:54:34;;;;;;;;;;;;;;;0.58;100.00;98740.55;1728187;82;21023;-59
2022/01/28 00:57:00;;;;;;;24.32;14.45;;;;;;;0.61;100.00;98730.70;1732124;81;20130;-60
2022/01/28 00:59:27;;;;;;;23.65;16.30;;;;;;;0.61;100.00;98728.03;1725341;82;21113;-60
2022/01/28 01:01:53;;;;;;;21.02;13.88;;;;;;;0.64;100.00;98732.95;1740014;81;21394;-60
2022/01/28 01:04:20;;;;;;;22.27;15.23;;;;;;;0.62;100.00;98723.79;1731672;82;21051;-60
2022/01/28 01:09:45;;;;;;;23.45;15.50;;;;;;;0.68;100.00;98697.92;1796092;79;23282;-61
2022/01/28 01:12:13;;;;;;;23.87;14.73;;;;;;;0.58;100.00;98708.41;1748478;80;21416;-61
2022/01/28 01:14:39;;;;;;;22.42;15.35;;;;;;;0.55;100.00;98694.97;1735934;81;21038;-61
2022/01/28 01:17:52;;;;;;;23.30;15.38;;;;;;;0.58;100.00;98698.52;1730451;81;21925;-61
2022/01/28 01:19:42;;;;;;;22.10;14.65;;;;;;;0.64;100.00;98688.75;1713979;81;21120;-61
2022/01/28 01:22:07;;;;;;;24.90;15.60;;;;;;;0.61;100.00;98683.84;1729426;81;21131;-62
2022/01/28 01:24:37;;;;;;;23.27;14.33;;;;;;;0.55;100.00;98686.11;1730894;81;20979;-62
2022/01/28 01:27:04;;;;;;;23.77;15.38;;;;;;;0.55;100.00;98672.20;1736709;81;21456;-61
2022/01/28 01:29:30;;;;;;;21.30;14.53;;;;;;;0.58;100.00;98669.05;1732624;81;20994;-61
2022/01/28 01:32:02;;;;;;;21.75;13.98;;;;;;;0.58;100.00;98669.58;1732723;81;21079;-59
2022/01/28 01:34:25;;;;;;;23.05;14.83;;;;;;;0.60;100.00;98660.80;1752230;81;20995;-59
2022/01/28 01:36:52;;;;;;;;;;;;;;;0.58;100.00;98654.33;1754933;81;21039;-59
2022/01/28 01:39:27;;;;;;;23.75;14.95;;;;;;;0.53;100.00;98652.07;1733078;81;20399;-59
2022/01/28 01:42:06;;;;;;;20.95;13.83;;;;;;;0.53;100.00;98649.39;1736341;81;21541;-59
2022/01/28 01:52:42;;;;;;;21.02;13.90;;;;;;;0.56;100.00;98639.55;1746931;81;21538;-60
2022/01/28 01:55:09;;;;;;;23.35;15.10;;;;;;;0.58;100.00;98640.12;1740853;81;21026;-60
2022/01/28 01:57:35;;;;;;;;;;;;;;;0.57;100.00;98631.27;1733028;81;21055;-60
2022/01/28 02:00:06;;;;;;;21.25;14.10;;;;;;;0.48;100.00;98630.82;1740831;81;20121;-60
2022/01/28 02:02:33;;;;;;;22.62;14.60;;;;;;;0.37;100.00;98631.63;1729979;81;20999;-60
2022/01/28 02:04:59;;;;;;;25.45;15.78;;;;;;;0.37;100.00;98634.31;1722050;81;21032;-60
2022/01/28 02:07:27;;;;;;;20.10;14.20;;;;;;;0.39;100.00;98623.38;1738634;81;21467;-60
2022/01/28 02:09:54;;;;;;;21.25;14.75;;;;;;;0.38;100.00;98626.58;1727041;81;21125;-60
2022/01/28 02:12:21;;;;;;;24.12;16.15;;;;;;;0.34;100.00;98628.09;1738658;82;21078;-60
2022/01/28 02:14:48;;;;;;;22.95;15.72;;;;;;;0.31;100.00;98621.87;1723215;82;21135;-60
2022/01/28 02:17:14;;;;;;;;;;;;;;;0.33;100.00;98619.76;1718816;82;21099;-59
2022/01/28 02:19:40;;;;;;;22.02;14.98;;;;;;;0.37;100.00;98620.11;1710497;83;20105;-60
2022/01/28 02:22:08;;;;;;;20.85;14.13;;;;;;;0.36;100.00;98619.28;1702875;82;21055;-60
2022/01/28 02:24:41;;;;;;;23.83;15.65;;;;;;;0.35;100.00;98619.02;1732411;82;21016;-59
2022/01/28 02:27:04;;;;;;;23.15;14.70;;;;;;;0.32;100.00;98623.47;1725818;82;21082;-60
2022/01/28 02:29:33;;;;;;;22.77;14.60;;;;;;;0.35;100.00;98626.23;1731550;82;21071;-60
2022/01/28 02:32:01;;;;;;;24.80;14.73;;;;;;;0.37;100.00;98622.27;1722436;82;21110;-59
2022/01/28 02:34:27;;;;;;;20.62;13.43;;;;;;;0.39;100.00;98614.02;1711832;84;21009;-60
2022/01/28 02:36:55;;;;;;;22.37;14.60;;;;;;;0.42;100.00;98612.20;1716007;82;21535;-60
2022/01/28 02:39:22;;;;;;;22.55;14.43;;;;;;;0.40;100.00;98605.73;1726565;82;21008;-60
2022/01/28 02:41:52;;;;;;;21.40;13.62;;;;;;;0.36;100.00;98603.22;1712823;82;21061;-61
2022/01/28 02:44:24;;;;;;;20.43;13.78;;;;;;;0.40;100.00;98604.39;1718230;82;21935;-60
2022/01/28 02:46:57;;;;;;;20.97;12.95;;;;;;;0.42;100.00;98597.48;1691857;84;21598;-62
2022/01/28 02:49:24;;;;;;;24.43;13.78;;;;;;;0.44;100.00;98601.55;1716585;82;21111;-60
2022/01/28 02:51:50;;;;;;;20.97;12.80;;;;;;;0.39;100.00;98600.08;1696272;84;21625;-60
2022/01/28 02:54:17;;;;;;;18.87;12.53;;;;;;;0.40;100.00;98596.88;1729255;82;21604;-60
2022/01/28 02:56:53;;;;;;;19.02;12.55;;;;;;;0.41;100.00;98599.34;1712329;82;21087;-59
2022/01/28 02:59:19;;;;;;;19.92;12.18;;;;;;;0.41;100.00;98607.37;1738018;82;21071;-60
2022/01/28 03:01:46;;;;;;;18.40;12.28;;;;;;;0.38;100.00;98602.48;1734790;82;21024;-60
2022/01/28 03:04:27;;;;;;;18.10;12.50;;;;;;;0.34;100.00;98595.96;1718071;82;21032;-60
2022/01/28 03:06:41;;;;;;;19.60;13.30;;;;;;;0.32;100.00;98595.91;1712487;82;21048;-60
2022/01/28 03:09:18;;;;;;;16.23;11.10;;;;;;;0.33;100.00;98589.49;1713847;82;21083;-60
2022/01/28 03:11:44;;;;;;;21.65;12.00;;;;;;;0.35;100.00;98598.13;1715877;82;21088;-60
2022/01/28 03:14:19;;;;;;;18.92;11.53;;;;;;;0.34;100.00;98593.80;1721360;82;21613;-60
2022/01/28 03:17:06;;;;;;;18.20;11.55;;;;;;;0.35;100.00;98587.41;1716835;82;21104;-60
2022/01/28 03:19:29;;;;;;;16.30;11.35;;;;;;;0.36;100.00;98583.67;1716239;82;21029;-60
2022/01/28 03:21:56;;;;;;;18.50;10.95;;;;;;;0.37;100.00;98591.48;1717483;82;21143;-60
2022/01/28 03:24:25;;;;;;;16.40;11.18;;;;;;;0.36;100.00;98596.53;1731272;82;21120;-60
2022/01/28 03:26:55;;;;;;;16.62;10.82;;;;;;;0.35;100.00;98588.23;1717464;82;21080;-60
2022/01/28 03:29:20;;;;;;;16.02;10.20;;;;;;;0.36;100.00;98586.34;1736258;82;21003;-60
2022/01/28 03:31:46;;;;;;;17.02;10.38;;;;;;;0.38;100.00;98575.71;1717994;82;21110;-60
2022/01/28 03:34:13;;;;;;;15.03;9.73;;;;;;;0.37;100.00;98568.72;1724288;82;21534;-60
2022/01/28 03:36:39;;;;;;;14.58;9.48;;;;;;;0.39;100.00;98561.25;1744305;82;21657;-60
2022/01/28 03:39:08;;;;;;;15.95;9.68;;;;;;;0.39;100.00;98554.56;1740163;82;21031;-60
2022/01/28 03:41:34;;;;;;;13.48;9.35;;;;;;;0.36;100.00;98556.89;1727376;82;21097;-60
2022/01/28 03:44:00;;;;;;;14.95;9.78;;;;;;;0.37;100.00;98554.52;1729650;82;21019;-60
2022/01/28 03:46:28;;;;;;;14.43;9.23;;;;;;;0.39;100.00;98555.11;1722840;82;21036;-60
2022/01/28 03:48:55;;;;;;;13.20;8.95;;;;;;;0.39;100.00;98553.22;1721618;82;21488;-60
2022/01/28 03:51:21;;;;;;;;;;;;;;;0.43;100.00;98549.55;1720787;82;22034;-61
2022/01/28 03:53:47;;;;;;;13.98;8.20;;;;;;;0.41;100.00;98551.66;1726009;82;20149;-60
2022/01/28 03:56:14;;;;;;;14.20;9.43;;;;;;;0.33;100.00;98550.67;1717008;82;21046;-60
2022/01/28 03:58:40;;;;;;;12.82;8.63;;;;;;;0.34;100.00;98559.83;1721135;82;21107;-60
2022/01/28 04:01:15;;;;;;;13.85;8.78;;;;;;;0.36;100.00;98552.36;1726287;82;21061;-60
2022/01/28 04:03:41;;;;;;;14.33;9.20;;;;;;;0.40;100.00;98556.72;1732725;82;21051;-60
2022/01/28 04:11:27;;;;;;;14.45;9.48;;;;;;;0.39;100.00;98553.78;1714953;82;21056;-60
2022/01/28 04:13:52;;;;;;;14.07;9.10;;;;;;;0.43;100.00;98542.34;1740409;82;21065;-61
2022/01/28 04:18:50;;;;;;;13.78;9.13;;;;;;;0.42;100.00;98547.95;1729882;82;21013;-61
2022/01/28 04:21:16;;;;;;;13.28;8.43;;;;;;;0.42;100.00;98548.77;1720397;82;21048;-61
2022/01/28 04:23:42;;;;;;;11.30;7.55;;;;;;;0.45;100.00;98548.81;1719832;82;21469;-60
2022/01/28 04:26:09;;;;;;;13.40;8.48;;;;;;;0.48;100.00;98557.70;1729942;82;21578;-59
2022/01/28 04:28:35;;;;;;;13.38;9.18;;;;;;;0.45;100.00;98552.30;1735175;82;21604;-60
2022/01/28 04:31:02;;;;;;;12.20;8.60;;;;;;;0.44;100.00;98550.67;1740570;82;21098;-59
2022/01/28 04:33:29;;;;;;;13.85;8.18;;;;;;;0.44;100.00;98548.52;1730423;82;20994;-59
2022/01/28 04:35:56;;;;;;;12.85;8.58;;;;;;;0.46;100.00;98551.78;1736277;82;21456;-59
2022/01/28 04:41:17;;;;;;;11.15;7.72;;;;;;;0.47;100.00;98551.53;1729233;82;21057;-59
2022/01/28 04:50:22;;;;;;;14.25;8.28;;;;;;;0.46;100.00;98540.52;1803665;78;22262;-59
2022/01/28 04:52:57;;;;;;;12.13;7.75;;;;;;;0.49;100.00;98549.45;1737936;82;21510;-59
2022/01/28 05:14:11;;;;;;;12.70;8.38;;;;;;;0.60;100.00;98520.20;1735262;82;21091;-61
2022/01/28 05:24:23;;;;;;;12.50;8.73;;;;;;;0.60;100.00;98513.50;1663578;84;21005;-61
2022/01/28 05:26:39;;;;;;;;;;;;;;;0.62;100.00;98518.09;1660581;86;21107;-61
2022/01/28 05:29:04;;;;;;;12.70;8.45;;;;;;;0.67;100.00;98510.98;1691667;84;20119;-61
2022/01/28 05:31:31;;;;;;;13.05;8.70;;;;;;;0.66;100.00;98504.52;1687101;84;21022;-61
2022/01/28 05:33:57;;;;;;;11.45;7.70;;;;;;;0.70;100.00;98509.69;1704967;84;21022;-62
2022/01/28 05:36:24;;;;;;;12.37;7.58;;;;;;;0.73;100.00;98514.56;1705774;84;21122;-62
2022/01/28 05:38:50;;;;;;;15.00;8.70;;;;;;;0.72;100.00;98510.25;1703963;84;21011;-61
2022/01/28 05:41:17;;;;;;;13.68;8.80;;;;;;;0.70;100.00;98514.52;1661709;84;21146;-62
2022/01/28 05:43:43;;;;;;;14.23;8.45;;;;;;;0.76;100.00;98514.91;1685557;84;21079;-62
2022/01/28 05:46:09;;;;;;;11.97;8.53;;;;;;;0.77;100.00;98515.72;1691128;84;21027;-61
2022/01/28 05:48:36;;;;;;;13.38;8.48;;;;;;;0.77;100.00;98521.08;1688080;84;21051;-61
2022/01/28 05:51:03;;;;;;;12.88;8.95;;;;;;;0.79;100.00;98516.28;1680737;84;21091;-62
2022/01/28 05:53:29;;;;;;;14.83;9.20;;;;;;;0.81;100.00;98518.22;1683678;85;21075;-62
2022/01/28 05:55:55;;;;;;;12.68;8.20;;;;;;;0.83;100.00;98521.45;1721348;82;21127;-61
2022/01/28 05:58:24;;;;;;;14.45;8.53;;;;;;;0.83;100.00;98512.08;1722220;82;21110;-61
2022/01/28 06:00:51;;;;;;;12.85;8.85;;;;;;;0.81;100.00;98528.41;1720695;82;21087;-62
2022/01/28 06:03:17;;;;;;;13.22;8.50;;;;;;;0.81;100.00;98530.27;1678659;83;21070;-63
2022/01/28 06:05:45;;;;;;;11.97;8.55;;;;;;;0.86;100.00;98523.66;1707255;82;21055;-62
2022/01/28 06:08:11;;;;;;;11.93;7.65;;;;;;;0.90;100.00;98518.92;1731470;82;21043;-63
2022/01/28 06:10:38;;;;;;;15.05;10.03;;;;;;;0.93;100.00;98527.82;1735424;82;21066;-63
2022/01/28 06:13:05;;;;;;;15.75;9.75;;;;;;;0.90;100.00;98524.28;1714365;82;21038;-64
2022/01/28 06:15:32;;;;;;;12.78;8.98;;;;;;;0.88;100.00;98518.37;1720971;82;21902;-63
2022/01/28 06:17:59;;;;;;;12.20;8.73;;;;;;;0.91;100.00;98507.17;1717691;83;21087;-63
2022/01/28 06:20:25;;;;;;;13.30;8.88;;;;;;;0.95;100.00;98514.20;1720723;82;21047;-63
2022/01/28 06:22:53;;;;;;;15.23;9.70;;;;;;;0.97;100.00;98506.20;1680932;83;20988;-63
2022/01/28 06:25:20;;;;;;;13.68;8.75;;;;;;;0.94;100.00;98508.55;1700150;84;21648;-63
2022/01/28 06:27:47;;;;;;;13.05;9.25;;;;;;;0.92;100.00;98503.41;1728367;82;21487;-63
2022/01/28 06:30:13;;;;;;;14.03;9.28;;;;;;;0.96;100.00;98507.24;1721589;82;21038;-63
2022/01/28 06:32:40;;;;;;;13.75;8.98;;;;;;;0.99;100.00;98517.48;1711018;82;21091;-63
2022/01/28 06:35:08;;;;;;;13.38;8.53;;;;;;;1.04;100.00;98513.27;1714326;82;21059;-63
2022/01/28 06:37:43;;;;;;;14.38;9.40;;;;;;;1.03;100.00;98515.13;1718370;82;21003;-63
2022/01/28 06:40:15;;;;;;;13.35;9.08;;;;;;;0.99;100.00;98513.46;1718598;83;21617;-63
2022/01/28 06:42:42;;;;;;;14.40;9.20;;;;;;;1.04;100.00;98522.13;1714682;82;20956;-63
2022/01/28 06:45:10;;;;;;;13.65;9.53;;;;;;;1.09;100.00;98520.08;1719709;82;21055;-63
2022/01/28 06:47:38;;;;;;;13.88;9.73;;;;;;;1.13;100.00;98530.09;1719634;82;21390;-63
2022/01/28 06:50:06;;;;;;;14.45;9.70;;;;;;;1.14;100.00;98530.35;1731020;82;21101;-63
2022/01/28 06:52:34;;;;;;;13.98;10.05;;;;;;;1.14;100.00;98531.69;1727925;81;20955;-63
2022/01/28 06:55:01;;;;;;;15.15;10.00;;;;;;;1.14;100.00;98525.52;1733463;82;21558;-63
2022/01/28 06:57:29;;;;;;;15.65;10.13;;;;;;;1.17;100.00;98519.70;1723668;83;21525;-63
2022/01/28 06:59:56;;;;;;;15.25;10.55;;;;;;;1.20;100.00;98521.38;1726735;82;21002;-63
2022/01/28 07:02:22;;;;;;;13.85;9.43;;;;;;;1.23;100.00;98516.86;1737983;82;21093;-63
2022/01/28 07:04:49;;;;;;;14.65;9.98;;;;;;;1.28;100.00;98516.12;1715007;81;21129;-63
2022/01/28 07:07:15;;;;;;;;;;;;;;;1.27;100.00;98519.88;1693593;85;21067;-63
2022/01/28 07:09:42;;;;;;;13.75;9.30;;;;;;;1.30;100.00;98511.34;1734135;82;20107;-63
2022/01/28 07:12:09;;;;;;;;;;;;;;;1.42;100.00;98514.75;1741626;82;21095;-63
2022/01/28 07:14:36;;;;;;;15.38;9.55;;;;;;;1.50;100.00;98509.00;1725189;81;20139;-63
2022/01/28 07:17:03;;;;;;;14.55;9.08;;;;;;;1.49;100.00;98510.86;1719882;83;21091;-63
2022/01/28 07:19:31;;;;;;;14.13;8.95;;;;;;;1.58;100.00;98509.95;1721168;82;21074;-64
2022/01/28 07:21:58;;;;;;;13.30;9.53;;;;;;;1.70;100.00;98503.95;1725552;83;21083;-63
2022/01/28 07:24:25;;;;;;;15.98;10.40;;;;;;;1.81;100.00;98508.95;1725954;81;21007;-63
2022/01/28 07:26:51;;;;;;;;;;;;;;;1.79;100.00;98503.03;1722230;83;21051;-63
2022/01/28 07:29:19;;;;;;;15.45;9.85;;;;;;;1.81;100.00;98507.09;1739203;82;20103;-63
2022/01/28 07:31:46;;;;;;;15.00;9.40;;;;;;;1.88;100.00;98504.23;1737980;82;21054;-63
2022/01/28 07:34:12;;;;;;;12.95;8.93;;;;;;;1.99;100.00;98498.78;1725926;82;21099;-63
2022/01/28 07:36:40;;;;;;;15.10;9.35;;;;;;;2.00;100.00;98502.28;1694992;83;21094;-63
2022/01/28 07:39:07;;;;;;;14.47;9.70;;;;;;;2.00;100.00;98506.30;1714837;82;21096;-63
2022/01/28 07:41:37;;;;;;;12.30;8.43;;;;;;;2.02;100.00;98506.07;1725726;83;21007;-63
2022/01/28 07:44:04;;;;;;;12.93;9.23;;;;;;;2.09;100.00;98508.84;1721104;81;21062;-63
2022/01/28 07:46:30;;;;;;;;;;;;;;;2.12;100.00;98502.19;1729732;82;21023;-63
2022/01/28 07:48:56;;;;;;;15.03;9.78;;;;;;;2.08;100.00;98495.16;1736453;82;20115;-63
2022/01/28 07:51:23;;;;;;;15.68;10.63;;;;;;;1.93;100.00;98508.34;1731118;82;21633;-63
2022/01/28 07:53:50;;;;;;;15.85;10.60;;;;;;;1.94;100.00;98500.59;1729819;81;21054;-63
2022/01/28 07:56:17;;;;;;;18.35;10.50;;;;;;;1.97;100.00;98500.09;1722621;83;21597;-63
2022/01/28 07:58:43;;;;;;;15.15;10.78;;;;;;;1.90;100.00;98502.95;1727867;81;21569;-63
2022/01/28 08:01:10;;;;;;;;;;;;;;;1.86;100.00;98502.33;1727810;83;21891;-63
2022/01/28 08:03:36;;;;;;;14.60;9.83;;;;;;;1.86;100.00;98498.31;1725926;83;20151;-63
2022/01/28 08:06:03;;;;;;;14.93;10.40;;;;;;;1.85;100.00;98491.30;1734732;82;21067;-63
2022/01/28 08:08:30;;;;;;;14.03;9.83;;;;;;;1.82;100.00;98489.94;1741167;82;21053;-63
2022/01/28 08:10:57;;;;;;;13.70;9.35;;;;;;;1.77;100.00;98493.88;1740440;82;21046;-64
2022/01/28 08:13:23;;;;;;;;;;;;;;;1.76;100.00;98490.11;1731936;81;21031;-64
2022/01/28 08:15:50;;;;;;;13.75;8.60;;;;;;;1.82;100.00;98486.44;1726363;83;20110;-64
2022/01/28 08:18:17;;;;;;;13.72;9.08;;;;;;;1.87;100.00;98489.21;1641014;87;21574;-63
2022/01/28 08:20:46;;;;;;;14.00;9.28;;;;;;;1.85;100.00;98488.09;1669092;85;21091;-62
2022/01/28 08:23:11;;;;;;;15.80;9.35;;;;;;;1.82;100.00;98487.25;1677995;85;21057;-62
2022/01/28 08:25:38;;;;;;;12.55;9.00;;;;;;;1.82;100.00;98489.12;1666932;85;21632;-62
2022/01/28 08:28:04;;;;;;;15.03;8.85;;;;;;;1.83;100.00;98483.52;1666042;85;21563;-62
2022/01/28 08:30:32;;;;;;;13.22;8.78;;;;;;;1.87;100.00;98475.80;1667395;85;21592;-62
2022/01/28 08:32:59;;;;;;;13.83;8.90;;;;;;;1.87;100.00;98494.58;1644066;85;21534;-62
2022/01/28 08:35:33;;;;;;;11.88;8.35;;;;;;;1.84;100.00;98485.13;1666034;84;21063;-62
2022/01/28 08:37:58;;;;;;;13.18;8.63;;;;;;;1.83;100.00;98487.55;1684042;85;21486;-62
2022/01/28 08:40:27;;;;;;;12.40;8.85;;;;;;;1.90;100.00;98494.90;1686680;84;21589;-62
2022/01/28 08:42:53;;;;;;;13.30;8.85;;;;;;;1.89;100.00;98495.95;1686746;85;21043;-63
2022/01/28 08:45:20;;;;;;;12.05;8.70;;;;;;;1.89;100.00;98493.27;1688124;85;21045;-62
2022/01/28 08:47:47;;;;;;;10.60;8.10;;;;;;;1.91;100.00;98496.50;1680703;84;21033;-63
2022/01/28 08:50:13;;;;;;;13.68;8.90;;;;;;;1.92;100.00;98506.71;1665101;85;21086;-63
2022/01/28 08:52:40;;;;;;;12.20;8.73;;;;;;;1.92;100.00;98495.45;1676927;84;21023;-63
2022/01/28 08:55:07;;;;;;;14.45;10.18;;;;;;;1.94;100.00;98497.91;1694409;84;20987;-62
2022/01/28 08:57:33;;;;;;;12.75;9.10;;;;;;;1.95;100.00;98499.50;1679976;84;21042;-62
2022/01/28 09:00:07;;;;;;;12.82;8.50;;;;;;;1.97;100.00;98490.70;1688386;84;20984;-62
2022/01/28 09:02:30;;;;;;;11.63;8.55;;;;;;;2.08;100.00;98485.76;1684433;84;21016;-62
2022/01/28 09:04:56;;;;;;;11.68;8.45;;;;;;;2.16;100.00;98479.16;1684930;84;21055;-62
2022/01/28 09:07:23;;;;;;;11.97;8.50;;;;;;;2.23;100.00;98482.47;1675706;84;21621;-63
2022/01/28 09:09:52;;;;;;;13.38;9.15;;;;;;;2.22;100.00;98474.95;1684771;84;21600;-62
2022/01/28 09:15:04;;;;;;;11.85;8.43;;;;;;;2.32;100.00;98479.10;1633140;87;21142;-60
2022/01/28 09:17:31;;;;;;;12.07;8.10;;;;;;;2.38;100.00;98473.25;1667741;84;21020;-61
2022/01/28 09:19:57;;;;;;;11.50;8.53;;;;;;;2.44;100.00;98465.56;1684878;85;21036;-61
2022/01/28 09:22:24;;;;;;;13.15;8.80;;;;;;;2.51;100.00;98458.91;1684678;85;21174;-62
2022/01/28 09:24:52;;;;;;;11.93;8.83;;;;;;;2.68;100.00;98454.02;1644970;87;21585;-61
2022/01/28 09:27:19;;;;;;;11.57;8.30;;;;;;;2.71;100.00;98454.32;1677332;84;21089;-62
2022/01/28 09:29:45;;;;;;;12.37;8.63;;;;;;;2.72;100.00;98445.73;1681900;84;21889;-63
2022/01/28 09:32:13;;;;;;;11.15;8.43;;;;;;;2.74;100.00;98443.59;1693105;84;21062;-63
2022/01/28 09:34:40;;;;;;;11.10;8.05;;;;;;;2.85;100.00;98435.92;1685486;84;21067;-62
2022/01/28 09:37:07;;;;;;;12.53;8.63;;;;;;;2.94;100.00;98427.70;1685273;84;21135;-62
2022/01/28 09:39:35;;;;;;;11.53;8.13;;;;;;;3.04;100.00;98429.13;1686719;84;21072;-63
2022/01/28 09:42:03;;;;;;;11.35;8.70;;;;;;;3.18;100.00;98424.14;1680500;85;21125;-64
2022/01/28 09:44:31;;;;;;;12.00;8.48;;;;;;;3.21;100.00;98417.72;1683862;84;21055;-65
2022/01/28 09:46:59;;;;;;;11.65;8.43;;;;;;;3.25;100.00;98417.48;1682942;84;21646;-65
2022/01/28 09:49:27;;;;;;;11.48;9.30;;;;;;;3.20;100.00;98408.02;1690213;83;21594;-65
2022/01/28 09:51:54;;;;;;;15.68;11.60;;;;;;;3.10;100.00;98408.47;1719527;83;21030;-65
2022/01/28 09:54:20;;;;;;;12.43;9.80;;;;;;;3.04;100.00;98410.31;1732723;82;22178;-64
2022/01/28 09:56:46;;;;;;;12.43;8.88;;;;;;;3.09;100.00;98406.84;1734336;82;21021;-64
2022/01/28 09:59:13;;;;;;;12.88;8.90;;;;;;;3.04;100.00;98403.59;1718721;82;21022;-63
2022/01/28 10:01:52;;;;;;;12.20;9.23;;;;;;;2.91;100.00;98397.27;1717833;82;21016;-62
2022/01/28 10:04:19;;;;;;;12.53;8.95;;;;;;;2.84;100.00;98396.12;1683561;85;20938;-63
2022/01/28 10:06:46;;;;;;;12.53;8.85;;;;;;;2.88;100.00;98403.16;1682606;85;21062;-63
2022/01/28 10:09:15;;;;;;;14.40;9.18;;;;;;;2.87;100.00;98391.59;1683425;85;20967;-63
2022/01/28 10:11:44;;;;;;;15.23;10.13;;;;;;;2.78;100.00;98384.25;1671807;85;21053;-64
2022/01/28 10:14:16;;;;;;;12.28;8.93;;;;;;;2.78;100.00;98378.34;1668221;83;20976;-63
2022/01/28 10:16:42;;;;;;;13.38;9.03;;;;;;;2.80;100.00;98383.48;1662768;83;21062;-63
2022/01/28 10:19:10;;;;;;;12.47;8.88;;;;;;;2.81;100.00;98371.64;1716047;83;20980;-63
2022/01/28 10:21:43;;;;;;;12.35;9.05;;;;;;;2.79;100.00;98371.09;1719937;82;21014;-63
2022/01/28 10:24:24;;;;;;;11.65;8.50;;;;;;;2.81;100.00;98364.39;1727073;82;21035;-63
2022/01/28 10:27:09;;;;;;;11.15;8.20;;;;;;;2.93;100.00;98362.89;1700205;82;21542;-61
2022/01/28 10:29:32;;;;;;;;;;;;;;;3.07;100.00;98364.62;1713639;82;21213;-61
2022/01/28 10:32:09;;;;;;;11.05;7.87;;;;;;;3.19;100.00;98356.64;1732785;82;20119;-63
2022/01/28 10:34:45;;;;;;;12.00;8.50;;;;;;;3.18;100.00;98362.30;1726601;82;21016;-62
2022/01/28 10:37:25;;;;;;;10.28;7.90;;;;;;;3.24;100.00;98354.00;1721990;82;21106;-63
2022/01/28 10:40:00;;;;;;;10.35;7.47;;;;;;;3.32;100.00;98346.80;1718891;82;21079;-61
2022/01/28 10:42:51;;;;;;;10.53;8.33;;;;;;;3.36;100.00;98350.60;1729443;83;21399;-63
2022/01/28 10:45:21;;;;;;;16.17;11.08;;;;;;;3.30;100.00;98342.73;1718131;82;21020;-64
2022/01/28 10:47:55;;;;;;;9.60;7.80;;;;;;;3.32;100.00;98330.67;1718238;82;21451;-64
2022/01/28 10:50:35;;;;;;;13.03;8.88;;;;;;;3.56;100.00;98313.59;1727185;82;21169;-65
2022/01/28 10:53:17;;;;;;;12.00;8.63;;;;;;;4.13;100.00;98308.72;1728992;82;20964;-65
2022/01/28 10:55:54;;;;;;;12.03;8.23;;;;;;;4.94;100.00;98312.36;1736812;82;21562;-65
2022/01/28 10:58:24;;;;;;;13.70;9.83;;;;;;;5.20;100.00;98301.84;1732695;82;20963;-65
2022/01/28 11:00:57;;;;;;;14.05;9.03;;;;;;;5.35;100.00;98307.20;1713667;82;21028;-65
2022/01/28 11:03:27;;;;;;;12.95;8.08;;;;;;;5.28;100.00;98302.63;1698524;82;21625;-63
2022/01/28 11:05:58;;;;;;;10.78;8.53;;;;;;;5.01;100.00;98318.30;1694654;83;21569;-63
2022/01/28 11:08:32;;;;;;;11.80;8.25;;;;;;;4.70;100.00;98313.44;1719874;82;21003;-65
2022/01/28 11:10:59;;;;;;;12.47;8.90;;;;;;;4.44;100.00;98305.84;1724977;82;21067;-65
2022/01/28 11:13:26;;;;;;;10.48;7.00;;;;;;;4.37;100.00;98310.67;1735328;82;21027;-65
2022/01/28 11:15:54;;;;;;;11.05;7.97;;;;;;;4.35;100.00;98306.10;1717725;83;21527;-65
2022/01/28 11:18:20;;;;;;;10.23;7.28;;;;;;;4.47;100.00;98299.91;1717239;83;20999;-64
2022/01/28 11:21:04;;;;;;;9.53;7.45;;;;;;;5.18;100.00;98294.55;1667664;84;21519;-64
2022/01/28 11:23:57;;;;;;;9.38;6.58;;;;;;;5.78;100.00;98295.48;1683694;85;21410;-64
2022/01/28 11:26:35;;;;;;;9.70;6.40;;;;;;;5.97;100.00;98291.13;1687254;82;21083;-64
2022/01/28 11:29:18;;;;;;;8.68;6.15;;;;;;;5.70;100.00;98294.72;1723344;82;20992;-64
2022/01/28 11:31:50;;;;;;;8.48;6.35;;;;;;;5.32;100.00;98302.88;1717687;83;21035;-64
2022/01/28 11:34:23;;;;;;;7.55;5.78;;;;;;;4.88;100.00;98303.47;1718000;82;21023;-64
2022/01/28 11:37:07;;;;;;;7.40;5.25;;;;;;;4.56;100.00;98306.95;1717447;83;21020;-65
2022/01/28 11:39:37;;;;;;;9.08;6.28;;;;;;;4.33;100.00;98308.77;1676609;84;20971;-64
2022/01/28 11:42:08;;;;;;;8.45;5.95;;;;;;;4.12;100.00;98294.44;1717784;83;21023;-64
2022/01/28 11:44:54;;;;;;;7.78;5.85;;;;;;;3.88;100.00;98293.28;1716080;82;20967;-64
2022/01/28 11:47:28;;;;;;;8.68;6.20;;;;;;;3.71;100.00;98288.64;1718973;82;21012;-64
2022/01/28 11:50:08;;;;;;;9.73;6.53;;;;;;;3.71;100.00;98296.18;1660146;83;21050;-65
2022/01/28 11:52:50;;;;;;;9.33;6.47;;;;;;;3.91;100.00;98296.79;1693179;81;21351;-64
2022/01/28 11:55:28;;;;;;;8.63;6.35;;;;;;;4.05;100.00;98299.27;1719041;83;21035;-64
2022/01/28 11:58:01;;;;;;;10.25;6.95;;;;;;;3.91;100.00;98300.83;1722566;82;20968;-64
2022/01/28 12:00:44;;;;;;;7.90;6.05;;;;;;;3.80;100.00;98296.47;1722460;81;21027;-64
2022/01/28 12:03:24;;;;;;;8.55;5.83;;;;;;;3.73;100.00;98294.55;1719981;83;20971;-64
2022/01/28 12:06:00;;;;;;;8.70;6.03;;;;;;;3.66;100.00;98284.03;1721669;82;20999;-64
2022/01/28 12:08:29;;;;;;;7.40;5.62;;;;;;;3.62;100.00;98290.20;1721362;83;21014;-64
2022/01/28 12:10:58;;;;;;;7.83;5.97;;;;;;;3.52;100.00;98286.92;1681987;83;21026;-64
2022/01/28 12:14:03;;;;;;;7.70;5.40;;;;;;;3.46;100.00;98290.14;1690486;85;21006;-64
2022/01/28 12:16:30;;;;;;;7.45;5.40;;;;;;;3.44;100.00;98278.81;1662566;84;21157;-63
2022/01/28 12:18:58;;;;;;;8.10;5.40;;;;;;;3.48;100.00;98277.22;1722472;82;20999;-64
2022/01/28 12:21:27;;;;;;;7.85;5.33;;;;;;;3.44;100.00;98269.92;1725179;83;21079;-64
2022/01/28 12:24:16;;;;;;;7.75;4.87;;;;;;;3.43;100.00;98268.33;1725515;83;21027;-64
2022/01/28 12:27:04;;;;;;;7.85;5.30;;;;;;;3.42;100.00;98268.86;1734238;82;21132;-65
2022/01/28 12:29:43;;;;;;;7.08;4.72;;;;;;;3.41;100.00;98267.76;1707405;83;21000;-64
2022/01/28 12:32:14;;;;;;;7.72;4.80;;;;;;;3.46;100.00;98260.55;1689996;85;21477;-64
2022/01/28 12:34:44;;;;;;;6.75;4.90;;;;;;;3.46;100.00;98263.23;1690328;85;21613;-64
2022/01/28 12:37:11;;;;;;;7.35;5.12;;;;;;;3.37;100.00;98254.55;1718911;81;21051;-64
2022/01/28 12:39:51;;;;;;;8.65;5.75;;;;;;;3.28;100.00;98261.51;1690050;85;20991;-64
2022/01/28 12:44:53;;;;;;;11.40;6.62;;;;;;;3.18;100.00;98260.92;1725454;82;20968;-64
2022/01/28 12:47:20;;;;;;;9.88;6.37;;;;;;;3.25;100.00;98259.34;1725472;82;21050;-64
2022/01/28 12:49:56;;;;;;;8.73;6.00;;;;;;;3.24;100.00;98249.65;1725345;81;21041;-64
2022/01/28 12:52:23;;;;;;;9.60;6.17;;;;;;;3.21;100.00;98241.58;1728194;83;21045;-64
2022/01/28 12:54:49;;;;;;;7.35;4.78;;;;;;;3.18;100.00;98242.63;1728401;82;21403;-64